Time;durP1;ratioP1;P1;durP2;ratioP2;P2;SDS_P1;SDS_P2;PMS_P1;PMS_P2;Temp;Humidity;BMP_temperature;BMP_pressure;BME280_temperature;BME280_humidity;BME280_pressure;Samples;Min_cycle;Max_cycle;Signal;HPM_P1;HPM_P2
2023/07/16 00:01:47;;;;;;;;;;;;;;;;;;5074350;28;20379;-69
2023/07/16 00:04:14;;;;;;;;;;;;;;;;;;5072768;28;19986;-68
2023/07/16 00:06:41;;;;;;;;;;;;;;;;;;5080672;28;20040;-68
2023/07/16 00:09:08;;;;;;;;;;;;;;;;;;5075110;28;19964;-68
2023/07/16 00:11:35;;;;;;;;;;;;;;;;;;5075205;28;20438;-68
2023/07/16 00:14:02;;;;;;;;;;;;;;;;;;5074225;28;20459;-68
2023/07/16 00:16:29;;;;;;;;;;;;;;;;;;5074810;28;19931;-68
2023/07/16 00:18:56;;;;;;;;;;;;;;;;;;5074681;28;20007;-68
2023/07/16 00:21:23;;;;;;;;;;;;;;;;;;5074235;28;20016;-69
2023/07/16 00:23:50;;;;;;;;;;;;;;;;;;5073432;28;20019;-68
2023/07/16 00:26:17;;;;;;;;;;;;;;;;;;5074360;28;19955;-70
2023/07/16 00:28:44;;;;;;;;;;;;;;;;;;5075453;28;20011;-68
2023/07/16 00:31:11;;;;;;;;;;;;;;;;;;5074568;28;19981;-68
2023/07/16 00:33:38;;;;;;;;;;;;;;;;;;5074204;28;20338;-69
2023/07/16 00:36:05;;;;;;;;;;;;;;;;;;5075801;28;20007;-69
2023/07/16 00:38:32;;;;;;;;;;;;;;;;;;5074341;28;20003;-70
2023/07/16 00:40:59;;;;;;;;;;;;;;;;;;5074018;28;19975;-69
2023/07/16 00:43:26;;;;;;;;;;;;;;;;;;5073365;28;19925;-69
2023/07/16 00:45:53;;;;;;;;;;;;;;;;;;5055479;28;19971;-69
2023/07/16 00:48:20;;;;;;;;;;;;;;;;;;5072794;28;20011;-69
2023/07/16 00:50:47;;;;;;;;;;;;;;;;;;5074960;28;19925;-70
2023/07/16 00:53:14;;;;;;;;;;;;;;;;;;5074098;28;19931;-70
2023/07/16 00:55:41;;;;;;;;;;;;;;;;;;5074772;28;19930;-70
2023/07/16 00:58:08;;;;;;;;;;;;;;;;;;5074322;28;20015;-70
2023/07/16 01:00:35;;;;;;;;;;;;;;;;;;5073576;28;20462;-69
2023/07/16 01:03:02;;;;;;;;;;;;;;;;;;5072786;28;20025;-69
2023/07/16 01:05:29;;;;;;;;;;;;;;;;;;5072982;28;19971;-70
2023/07/16 01:07:56;;;;;;;;;;;;;;;;;;5074437;28;20007;-69
2023/07/16 01:10:23;;;;;;;;;;;;;;;;;;5075062;28;19924;-69
2023/07/16 01:12:50;;;;;;;;;;;;;;;;;;5074125;28;20007;-69
2023/07/16 01:15:17;;;;;;;;;;;;;;;;;;5071837;28;19971;-69
2023/07/16 01:17:45;;;;;;;;;;;;;;;;;;5073730;28;20011;-69
2023/07/16 01:20:12;;;;;;;;;;;;;;;;;;5074341;28;19925;-69
2023/07/16 01:22:39;;;;;;;;;;;;;;;;;;5071309;28;20007;-67
2023/07/16 01:25:06;;;;;;;;;;;;;;;;;;5056646;28;19925;-67
2023/07/16 01:27:33;;;;;;;;;;;;;;;;;;5054046;28;20280;-68
2023/07/16 01:30:00;;;;;;;;;;;;;;;;;;5053983;28;20015;-68
2023/07/16 01:32:27;;;;;;;;;;;;;;;;;;5079746;28;19925;-68
2023/07/16 01:34:54;;;;;;;;;;;;;;;;;;5073334;28;20019;-68
2023/07/16 01:37:21;;;;;;;;;;;;;;;;;;5071920;28;20020;-68
2023/07/16 01:39:48;;;;;;;;;;;;;;;;;;5072057;28;19928;-68
2023/07/16 01:42:15;;;;;;;;;;;;;;;;;;5072486;28;19924;-68
2023/07/16 01:44:42;;;;;;;;;;;;;;;;;;5071477;28;20027;-68
2023/07/16 01:47:09;;;;;;;;;;;;;;;;;;5071159;28;19955;-68
2023/07/16 01:49:36;;;;;;;;;;;;;;;;;;5073925;28;20004;-69
2023/07/16 01:52:03;;;;;;;;;;;;;;;;;;5072583;28;20361;-68
2023/07/16 01:54:30;;;;;;;;;;;;;;;;;;5070805;28;20353;-68
2023/07/16 01:56:57;;;;;;;;;;;;;;;;;;5071702;28;20005;-68
2023/07/16 01:59:24;;;;;;;;;;;;;;;;;;5073124;28;20015;-68
2023/07/16 02:01:51;;;;;;;;;;;;;;;;;;5072091;28;19967;-67
2023/07/16 02:04:18;;;;;;;;;;;;;;;;;;5071869;28;20027;-68
2023/07/16 02:06:44;;;;;;;;;;;;;;;;;;5076357;28;20019;-68
2023/07/16 02:09:11;;;;;;;;;;;;;;;;;;5072009;28;19972;-68
2023/07/16 02:11:38;;;;;;;;;;;;;;;;;;5072092;28;20026;-67
2023/07/16 02:14:05;;;;;;;;;;;;;;;;;;5072466;28;20015;-68
2023/07/16 02:16:32;;;;;;;;;;;;;;;;;;5071131;28;19959;-67
2023/07/16 02:18:59;;;;;;;;;;;;;;;;;;5070291;28;19994;-67
2023/07/16 02:21:26;;;;;;;;;;;;;;;;;;5073226;28;19974;-68
2023/07/16 02:23:53;;;;;;;;;;;;;;;;;;5061448;28;20019;-68
2023/07/16 02:26:21;;;;;;;;;;;;;;;;;;5072801;28;19963;-68
2023/07/16 02:28:48;;;;;;;;;;;;;;;;;;5069357;28;20014;-68
2023/07/16 02:31:15;;;;;;;;;;;;;;;;;;5071233;28;19925;-68
2023/07/16 02:33:42;;;;;;;;;;;;;;;;;;5072481;28;20015;-68
2023/07/16 02:36:09;;;;;;;;;;;;;;;;;;5073067;28;19924;-67
2023/07/16 02:38:36;;;;;;;;;;;;;;;;;;5072364;28;20027;-67
2023/07/16 02:41:03;;;;;;;;;;;;;;;;;;5085866;28;19932;-67
2023/07/16 02:43:30;;;;;;;;;;;;;;;;;;5071511;28;20029;-67
2023/07/16 02:45:57;;;;;;;;;;;;;;;;;;5072427;28;20449;-67
2023/07/16 02:48:23;;;;;;;;;;;;;;;;;;5069892;28;19924;-67
2023/07/16 02:50:50;;;;;;;;;;;;;;;;;;5072392;28;19971;-67
2023/07/16 02:53:17;;;;;;;;;;;;;;;;;;5072180;28;20015;-67
2023/07/16 02:55:44;;;;;;;;;;;;;;;;;;5073772;28;19931;-67
2023/07/16 02:58:11;;;;;;;;;;;;;;;;;;5084551;28;19928;-67
2023/07/16 03:00:38;;;;;;;;;;;;;;;;;;5072110;28;19925;-67
2023/07/16 03:03:05;;;;;;;;;;;;;;;;;;5071090;28;19924;-67
2023/07/16 03:05:32;;;;;;;;;;;;;;;;;;5071439;28;19924;-67
2023/07/16 03:07:59;;;;;;;;;;;;;;;;;;5070493;28;20019;-67
2023/07/16 03:10:27;;;;;;;;;;;;;;;;;;5072220;28;19924;-68
2023/07/16 03:12:54;;;;;;;;;;;;;;;;;;5072332;28;19924;-68
2023/07/16 03:15:21;;;;;;;;;;;;;;;;;;5064746;28;19974;-68
2023/07/16 03:17:48;;;;;;;;;;;;;;;;;;5070622;28;19925;-67
2023/07/16 03:20:15;;;;;;;;;;;;;;;;;;5072220;28;20027;-67
2023/07/16 03:22:42;;;;;;;;;;;;;;;;;;5076802;28;19983;-67
2023/07/16 03:25:09;;;;;;;;;;;;;;;;;;5065983;28;20002;-67
2023/07/16 03:27:35;;;;;;;;;;;;;;;;;;5069326;28;19925;-68
2023/07/16 03:30:03;;;;;;;;;;;;;;;;;;5063559;28;19925;-68
2023/07/16 03:32:30;;;;;;;;;;;;;;;;;;5060524;28;19933;-68
2023/07/16 03:34:57;;;;;;;;;;;;;;;;;;5073957;28;20497;-67
2023/07/16 03:37:24;;;;;;;;;;;;;;;;;;5076114;28;20023;-67
2023/07/16 03:39:51;;;;;;;;;;;;;;;;;;5071338;28;20015;-67
2023/07/16 03:42:17;;;;;;;;;;;;;;;;;;5072482;28;19971;-67
2023/07/16 03:44:44;;;;;;;;;;;;;;;;;;5075188;28;20307;-67
2023/07/16 03:47:11;;;;;;;;;;;;;;;;;;5076471;28;19974;-67
2023/07/16 03:49:38;;;;;;;;;;;;;;;;;;5073560;28;19925;-68
2023/07/16 03:52:05;;;;;;;;;;;;;;;;;;5075687;28;19964;-67
2023/07/16 03:54:32;;;;;;;;;;;;;;;;;;5076132;28;19931;-68
2023/07/16 03:56:59;;;;;;;;;;;;;;;;;;5075727;28;20020;-67
2023/07/16 03:59:26;;;;;;;;;;;;;;;;;;5074668;28;19999;-67
2023/07/16 04:01:53;;;;;;;;;;;;;;;;;;5072981;28;20392;-67
2023/07/16 04:04:20;;;;;;;;;;;;;;;;;;5079499;28;19924;-69
2023/07/16 04:06:47;;;;;;;;;;;;;;;;;;5075300;28;19931;-67
2023/07/16 04:09:14;;;;;;;;;;;;;;;;;;5074538;28;19931;-67
2023/07/16 04:11:41;;;;;;;;;;;;;;;;;;5074338;28;20011;-67
2023/07/16 04:14:08;;;;;;;;;;;;;;;;;;5075047;28;19928;-67
2023/07/16 04:16:35;;;;;;;;;;;;;;;;;;5073410;28;19970;-67
2023/07/16 04:19:02;;;;;;;;;;;;;;;;;;5070691;28;20421;-67
2023/07/16 04:21:29;;;;;;;;;;;;;;;;;;5072990;28;19924;-67
2023/07/16 04:23:56;;;;;;;;;;;;;;;;;;5074969;28;19928;-67
2023/07/16 04:26:23;;;;;;;;;;;;;;;;;;5074789;28;19924;-67
2023/07/16 04:28:50;;;;;;;;;;;;;;;;;;5073984;28;20032;-67
2023/07/16 04:31:17;;;;;;;;;;;;;;;;;;5074009;28;20286;-67
2023/07/16 04:33:44;;;;;;;;;;;;;;;;;;5074100;28;20026;-67
2023/07/16 04:36:11;;;;;;;;;;;;;;;;;;5074545;28;20010;-67
2023/07/16 04:38:38;;;;;;;;;;;;;;;;;;5074700;28;20007;-67
2023/07/16 04:41:05;;;;;;;;;;;;;;;;;;5073986;28;19924;-67
2023/07/16 04:43:32;;;;;;;;;;;;;;;;;;5074574;28;20479;-67
2023/07/16 04:45:59;;;;;;;;;;;;;;;;;;5071809;28;20015;-67
2023/07/16 04:48:26;;;;;;;;;;;;;;;;;;5073919;28;20003;-67
2023/07/16 04:50:53;;;;;;;;;;;;;;;;;;5072770;28;20015;-67
2023/07/16 04:53:20;;;;;;;;;;;;;;;;;;5074015;28;20303;-67
2023/07/16 04:55:47;;;;;;;;;;;;;;;;;;5085653;28;20015;-67
2023/07/16 04:58:14;;;;;;;;;;;;;;;;;;5080303;28;19931;-67
2023/07/16 05:00:41;;;;;;;;;;;;;;;;;;5070763;28;20015;-70
2023/07/16 05:03:08;;;;;;;;;;;;;;;;;;5072426;28;20015;-67
2023/07/16 05:05:35;;;;;;;;;;;;;;;;;;5074575;28;19924;-67
2023/07/16 05:08:02;;;;;;;;;;;;;;;;;;5073201;28;19924;-67
2023/07/16 05:10:29;;;;;;;;;;;;;;;;;;5072706;28;20003;-67
2023/07/16 05:12:56;;;;;;;;;;;;;;;;;;5079758;28;19935;-67
2023/07/16 05:15:23;;;;;;;;;;;;;;;;;;5062217;28;19929;-67
2023/07/16 05:17:50;;;;;;;;;;;;;;;;;;5073035;28;20299;-67
2023/07/16 05:20:17;;;;;;;;;;;;;;;;;;5073122;28;20007;-69
2023/07/16 05:22:44;;;;;;;;;;;;;;;;;;5073404;28;19956;-69
2023/07/16 05:25:11;;;;;;;;;;;;;;;;;;5072739;28;20031;-69
2023/07/16 05:27:38;;;;;;;;;;;;;;;;;;5065827;28;19928;-68
2023/07/16 05:30:05;;;;;;;;;;;;;;;;;;5063650;28;19932;-68
2023/07/16 05:32:32;;;;;;;;;;;;;;;;;;5068682;28;20026;-68
2023/07/16 05:34:59;;;;;;;;;;;;;;;;;;5068661;28;19931;-70
2023/07/16 05:37:26;;;;;;;;;;;;;;;;;;5067485;28;20011;-70
2023/07/16 05:39:53;;;;;;;;;;;;;;;;;;5072646;28;19924;-68
2023/07/16 05:42:20;;;;;;;;;;;;;;;;;;5071391;28;20011;-69
2023/07/16 05:44:47;;;;;;;;;;;;;;;;;;5067431;28;20589;-69
2023/07/16 05:47:14;;;;;;;;;;;;;;;;;;5072823;28;20299;-68
2023/07/16 05:49:41;;;;;;;;;;;;;;;;;;5062719;28;19925;-69
2023/07/16 05:52:08;;;;;;;;;;;;;;;;;;5069968;28;20015;-68
2023/07/16 05:54:35;;;;;;;;;;;;;;;;;;5071680;28;19971;-70
2023/07/16 05:57:02;;;;;;;;;;;;;;;;;;5063928;28;20454;-70
2023/07/16 05:59:29;;;;;;;;;;;;;;;;;;5069935;28;19959;-70
2023/07/16 06:01:57;;;;;;;;;;;;;;;;;;5071365;28;19978;-70
2023/07/16 06:04:24;;;;;;;;;;;;;;;;;;5072697;28;19925;-68
2023/07/16 06:06:51;;;;;;;;;;;;;;;;;;5071158;28;20299;-68
2023/07/16 06:09:18;;;;;;;;;;;;;;;;;;5070881;28;19924;-69
2023/07/16 06:11:45;;;;;;;;;;;;;;;;;;5063506;28;20011;-69
2023/07/16 06:14:12;;;;;;;;;;;;;;;;;;5071528;28;19932;-69
2023/07/16 06:16:39;;;;;;;;;;;;;;;;;;5065754;28;20007;-69
2023/07/16 06:19:06;;;;;;;;;;;;;;;;;;5076639;28;19970;-71
2023/07/16 06:21:33;;;;;;;;;;;;;;;;;;5072442;28;20615;-70
2023/07/16 06:24:00;;;;;;;;;;;;;;;;;;5069240;28;20302;-70
2023/07/16 06:26:27;;;;;;;;;;;;;;;;;;5072475;28;20007;-71
2023/07/16 06:28:54;;;;;;;;;;;;;;;;;;5072517;28;19966;-70
2023/07/16 06:31:21;;;;;;;;;;;;;;;;;;5069694;28;19975;-70
2023/07/16 06:33:49;;;;;;;;;;;;;;;;;;5072059;28;20015;-71
2023/07/16 06:36:16;;;;;;;;;;;;;;;;;;5071779;28;20082;-72
2023/07/16 06:38:43;;;;;;;;;;;;;;;;;;5071969;28;20011;-71
2023/07/16 06:41:10;;;;;;;;;;;;;;;;;;5072458;28;19924;-71
2023/07/16 06:43:37;;;;;;;;;;;;;;;;;;5072380;28;20023;-71
2023/07/16 06:46:03;;;;;;;;;;;;;;;;;;5070353;28;19935;-70
2023/07/16 06:48:30;;;;;;;;;;;;;;;;;;5069936;28;19925;-71
2023/07/16 06:50:57;;;;;;;;;;;;;;;;;;5071330;28;20004;-72
2023/07/16 06:53:24;;;;;;;;;;;;;;;;;;5072289;28;20422;-70
2023/07/16 06:55:52;;;;;;;;;;;;;;;;;;5072907;28;20474;-72
2023/07/16 06:58:19;;;;;;;;;;;;;;;;;;5072635;28;19978;-70
2023/07/16 07:00:47;;;;;;;;;;;;;;;;;;5068963;28;21356;-72
2023/07/16 07:03:14;;;;;;;;;;;;;;;;;;5067253;28;20011;-71
2023/07/16 07:05:41;;;;;;;;;;;;;;;;;;5067865;28;19986;-71
2023/07/16 07:08:08;;;;;;;;;;;;;;;;;;5071514;28;19960;-72
2023/07/16 07:10:37;;;;;;;;;;;;;;;;;;5070192;28;19968;-70
2023/07/16 07:13:04;;;;;;;;;;;;;;;;;;5069904;28;19925;-69
2023/07/16 07:15:31;;;;;;;;;;;;;;;;;;5067425;28;20032;-69
2023/07/16 07:17:58;;;;;;;;;;;;;;;;;;5068566;28;20014;-69
2023/07/16 07:20:25;;;;;;;;;;;;;;;;;;5071926;28;20003;-69
2023/07/16 07:22:52;;;;;;;;;;;;;;;;;;5069761;28;20363;-69
2023/07/16 07:25:19;;;;;;;;;;;;;;;;;;5067015;28;20007;-69
2023/07/16 07:27:46;;;;;;;;;;;;;;;;;;5074359;28;19925;-69
2023/07/16 07:30:13;;;;;;;;;;;;;;;;;;5078758;28;19924;-69
2023/07/16 07:32:40;;;;;;;;;;;;;;;;;;5072239;28;19971;-69
2023/07/16 07:35:07;;;;;;;;;;;;;;;;;;5067643;28;20011;-70
2023/07/16 07:37:34;;;;;;;;;;;;;;;;;;5067189;28;19967;-69
2023/07/16 07:40:02;;;;;;;;;;;;;;;;;;5062796;28;19924;-69
2023/07/16 07:42:29;;;;;;;;;;;;;;;;;;5069854;28;19971;-69
2023/07/16 07:44:56;;;;;;;;;;;;;;;;;;5070953;28;20461;-71
2023/07/16 07:47:23;;;;;;;;;;;;;;;;;;5071040;28;19972;-70
2023/07/16 07:49:50;;;;;;;;;;;;;;;;;;5070496;28;19924;-69
2023/07/16 07:52:17;;;;;;;;;;;;;;;;;;5070317;28;19928;-69
2023/07/16 07:54:44;;;;;;;;;;;;;;;;;;5070148;28;20442;-70
2023/07/16 07:57:11;;;;;;;;;;;;;;;;;;5071667;28;20362;-70
2023/07/16 07:59:38;;;;;;;;;;;;;;;;;;5068192;28;20027;-70
2023/07/16 08:02:05;;;;;;;;;;;;;;;;;;5076150;28;19975;-71
2023/07/16 08:04:32;;;;;;;;;;;;;;;;;;5075552;28;20405;-70
2023/07/16 08:07:00;;;;;;;;;;;;;;;;;;5068439;28;19940;-70
2023/07/16 08:09:27;;;;;;;;;;;;;;;;;;5065195;28;19924;-70
2023/07/16 08:11:54;;;;;;;;;;;;;;;;;;5086237;28;19932;-70
2023/07/16 08:14:21;;;;;;;;;;;;;;;;;;5073099;28;19967;-70
2023/07/16 08:16:48;;;;;;;;;;;;;;;;;;5071570;28;20019;-69
2023/07/16 08:19:15;;;;;;;;;;;;;;;;;;5071164;28;20012;-69
2023/07/16 08:21:42;;;;;;;;;;;;;;;;;;5073039;28;19971;-70
2023/07/16 08:24:09;;;;;;;;;;;;;;;;;;5070790;28;20022;-70
2023/07/16 08:26:36;;;;;;;;;;;;;;;;;;5062481;28;20467;-69
2023/07/16 08:29:03;;;;;;;;;;;;;;;;;;5068298;28;19932;-71
2023/07/16 08:31:30;;;;;;;;;;;;;;;;;;5070963;28;20359;-70
2023/07/16 08:33:57;;;;;;;;;;;;;;;;;;5075242;28;20259;-70
2023/07/16 08:36:24;;;;;;;;;;;;;;;;;;5079482;28;20090;-71
2023/07/16 08:38:51;;;;;;;;;;;;;;;;;;5074606;28;19924;-70
2023/07/16 08:41:18;;;;;;;;;;;;;;;;;;5073631;28;20375;-70
2023/07/16 08:43:45;;;;;;;;;;;;;;;;;;5072889;28;20479;-70
2023/07/16 08:46:12;;;;;;;;;;;;;;;;;;5071266;28;20980;-70
2023/07/16 08:48:39;;;;;;;;;;;;;;;;;;5070683;28;19963;-69
2023/07/16 08:51:07;;;;;;;;;;;;;;;;;;5074314;28;19924;-70
2023/07/16 08:53:34;;;;;;;;;;;;;;;;;;5073421;28;20411;-70
2023/07/16 08:56:02;;;;;;;;;;;;;;;;;;5073530;28;20034;-70
2023/07/16 08:58:29;;;;;;;;;;;;;;;;;;5069092;28;20403;-70
2023/07/16 09:00:56;;;;;;;;;;;;;;;;;;5069422;28;20019;-70
2023/07/16 09:03:23;;;;;;;;;;;;;;;;;;5069446;28;20011;-70
2023/07/16 09:05:50;;;;;;;;;;;;;;;;;;5071523;28;19967;-70
2023/07/16 09:08:17;;;;;;;;;;;;;;;;;;5062564;28;19925;-73
2023/07/16 09:10:44;;;;;;;;;;;;;;;;;;5073032;28;19946;-72
2023/07/16 09:13:11;;;;;;;;;;;;;;;;;;5071431;28;19933;-73
2023/07/16 09:15:40;;;;;;;;;;;;;;;;;;5060638;28;20016;-72
2023/07/16 09:18:10;;;;;;;;;;;;;;;;;;5059749;28;19925;-73
2023/07/16 09:20:37;;;;;;;;;;;;;;;;;;5067022;28;19932;-72
2023/07/16 09:23:04;;;;;;;;;;;;;;;;;;5062570;28;20312;-73
2023/07/16 09:25:31;;;;;;;;;;;;;;;;;;5065368;28;19929;-72
2023/07/16 09:27:58;;;;;;;;;;;;;;;;;;5068166;28;19959;-73
2023/07/16 09:30:28;;;;;;;;;;;;;;;;;;5073999;28;20019;-73
2023/07/16 09:32:55;;;;;;;;;;;;;;;;;;5068589;28;19925;-72
2023/07/16 09:35:22;;;;;;;;;;;;;;;;;;5062822;28;19924;-72
2023/07/16 09:37:48;;;;;;;;;;;;;;;;;;5069904;28;19924;-71
2023/07/16 09:40:15;;;;;;;;;;;;;;;;;;5073303;28;20015;-73
2023/07/16 09:42:42;;;;;;;;;;;;;;;;;;5073292;28;20027;-73
2023/07/16 09:45:09;;;;;;;;;;;;;;;;;;5074239;28;20011;-73
2023/07/16 09:47:36;;;;;;;;;;;;;;;;;;5073694;28;20307;-73
2023/07/16 09:50:04;;;;;;;;;;;;;;;;;;5072635;28;19928;-73
2023/07/16 09:52:31;;;;;;;;;;;;;;;;;;5073059;28;20036;-73
2023/07/16 09:54:58;;;;;;;;;;;;;;;;;;5069814;28;19925;-73
2023/07/16 09:57:25;;;;;;;;;;;;;;;;;;5072415;28;19973;-73
2023/07/16 09:59:52;;;;;;;;;;;;;;;;;;5065369;28;19925;-74
2023/07/16 10:02:19;;;;;;;;;;;;;;;;;;5068848;28;19924;-73
2023/07/16 10:04:46;;;;;;;;;;;;;;;;;;5069277;28;20445;-72
2023/07/16 10:07:13;;;;;;;;;;;;;;;;;;5063943;28;19964;-72
2023/07/16 10:09:40;;;;;;;;;;;;;;;;;;5061167;28;19944;-73
2023/07/16 10:12:07;;;;;;;;;;;;;;;;;;5070623;28;19925;-73
2023/07/16 10:14:34;;;;;;;;;;;;;;;;;;5073800;28;19978;-74
2023/07/16 10:17:01;;;;;;;;;;;;;;;;;;5059155;28;19925;-72
2023/07/16 10:19:28;;;;;;;;;;;;;;;;;;5074429;28;20024;-72
2023/07/16 10:21:55;;;;;;;;;;;;;;;;;;5071147;28;19975;-73
2023/07/16 10:24:22;;;;;;;;;;;;;;;;;;5072053;28;20510;-73
2023/07/16 10:26:49;;;;;;;;;;;;;;;;;;5072094;28;20331;-73
2023/07/16 10:29:16;;;;;;;;;;;;;;;;;;5071392;28;20054;-74
2023/07/16 10:31:43;;;;;;;;;;;;;;;;;;5069861;28;19930;-71
2023/07/16 10:34:11;;;;;;;;;;;;;;;;;;5059181;28;19961;-74
2023/07/16 10:36:38;;;;;;;;;;;;;;;;;;5070462;28;19977;-72
2023/07/16 10:39:04;;;;;;;;;;;;;;;;;;5070375;28;19924;-72
2023/07/16 10:41:31;;;;;;;;;;;;;;;;;;5063726;28;19924;-72
2023/07/16 10:43:58;;;;;;;;;;;;;;;;;;5066333;28;19928;-72
2023/07/16 10:46:25;;;;;;;;;;;;;;;;;;5065646;28;20015;-72
2023/07/16 10:48:52;;;;;;;;;;;;;;;;;;5070581;28;19924;-73
2023/07/16 10:51:19;;;;;;;;;;;;;;;;;;5068827;28;19970;-72
2023/07/16 10:53:46;;;;;;;;;;;;;;;;;;5067177;28;20039;-72
2023/07/16 10:56:14;;;;;;;;;;;;;;;;;;5062585;28;20326;-72
2023/07/16 10:58:41;;;;;;;;;;;;;;;;;;5070360;28;20082;-74
2023/07/16 11:01:08;;;;;;;;;;;;;;;;;;5069767;28;19963;-73
2023/07/16 11:03:35;;;;;;;;;;;;;;;;;;5070186;28;19996;-72
2023/07/16 11:06:02;;;;;;;;;;;;;;;;;;5067354;28;19931;-73
2023/07/16 11:08:29;;;;;;;;;;;;;;;;;;5071285;28;20066;-73
2023/07/16 11:10:56;;;;;;;;;;;;;;;;;;5071168;28;20456;-74
2023/07/16 11:13:23;;;;;;;;;;;;;;;;;;5057292;28;19934;-74
2023/07/16 11:15:50;;;;;;;;;;;;;;;;;;5069964;28;20387;-74
2023/07/16 11:18:18;;;;;;;;;;;;;;;;;;5071017;28;20011;-73
2023/07/16 11:20:45;;;;;;;;;;;;;;;;;;5068863;28;20092;-74
2023/07/16 11:23:12;;;;;;;;;;;;;;;;;;5070800;28;19933;-73
2023/07/16 11:25:39;;;;;;;;;;;;;;;;;;5070185;28;19931;-73
2023/07/16 11:28:05;;;;;;;;;;;;;;;;;;5064433;28;19987;-73
2023/07/16 11:30:32;;;;;;;;;;;;;;;;;;5060463;28;20011;-73
2023/07/16 11:32:59;;;;;;;;;;;;;;;;;;5067246;28;20011;-74
2023/07/16 11:35:26;;;;;;;;;;;;;;;;;;5069604;28;20007;-73
2023/07/16 11:37:53;;;;;;;;;;;;;;;;;;5065336;28;19978;-73
2023/07/16 11:40:22;;;;;;;;;;;;;;;;;;5059643;28;19979;-73
2023/07/16 11:42:50;;;;;;;;;;;;;;;;;;5064780;28;19982;-73
2023/07/16 11:45:17;;;;;;;;;;;;;;;;;;5061103;28;19932;-73
2023/07/16 11:47:44;;;;;;;;;;;;;;;;;;5061276;28;19924;-74
2023/07/16 11:50:11;;;;;;;;;;;;;;;;;;5054423;28;20008;-74
2023/07/16 11:52:38;;;;;;;;;;;;;;;;;;5062303;28;19978;-74
2023/07/16 11:55:05;;;;;;;;;;;;;;;;;;5059287;28;20374;-74
2023/07/16 11:57:32;;;;;;;;;;;;;;;;;;5060218;28;20015;-74
2023/07/16 11:59:59;;;;;;;;;;;;;;;;;;5067956;28;19924;-73
2023/07/16 12:02:26;;;;;;;;;;;;;;;;;;5063005;28;19972;-74
2023/07/16 12:04:52;;;;;;;;;;;;;;;;;;5059143;28;19947;-75
2023/07/16 12:07:19;;;;;;;;;;;;;;;;;;5063753;28;20019;-74
2023/07/16 12:09:46;;;;;;;;;;;;;;;;;;5068805;28;19924;-75
2023/07/16 12:12:14;;;;;;;;;;;;;;;;;;5068410;28;20023;-74
2023/07/16 12:14:41;;;;;;;;;;;;;;;;;;5058562;28;19924;-74
2023/07/16 12:17:08;;;;;;;;;;;;;;;;;;5061021;28;19931;-73
2023/07/16 12:19:35;;;;;;;;;;;;;;;;;;5056904;28;19935;-73
2023/07/16 12:22:02;;;;;;;;;;;;;;;;;;5058539;28;19990;-74
2023/07/16 12:24:30;;;;;;;;;;;;;;;;;;5063941;28;19955;-74
2023/07/16 12:26:57;;;;;;;;;;;;;;;;;;5066182;28;19986;-74
2023/07/16 12:29:24;;;;;;;;;;;;;;;;;;5064672;28;19928;-73
2023/07/16 12:31:51;;;;;;;;;;;;;;;;;;5062236;28;20486;-74
2023/07/16 12:34:18;;;;;;;;;;;;;;;;;;5065879;28;20467;-74
2023/07/16 12:36:45;;;;;;;;;;;;;;;;;;5064813;28;19971;-74
2023/07/16 12:39:12;;;;;;;;;;;;;;;;;;5057862;28;19994;-74
2023/07/16 12:41:39;;;;;;;;;;;;;;;;;;5066689;28;20015;-74
2023/07/16 12:44:06;;;;;;;;;;;;;;;;;;5062985;28;19928;-74
2023/07/16 12:46:33;;;;;;;;;;;;;;;;;;5060491;28;20061;-74
2023/07/16 12:49:00;;;;;;;;;;;;;;;;;;5056684;28;19936;-73
2023/07/16 12:51:27;;;;;;;;;;;;;;;;;;5066785;28;19964;-74
2023/07/16 12:53:54;;;;;;;;;;;;;;;;;;5064559;28;19994;-73
2023/07/16 12:56:21;;;;;;;;;;;;;;;;;;5058941;28;20003;-73
2023/07/16 12:58:48;;;;;;;;;;;;;;;;;;5067193;28;19956;-73
2023/07/16 13:01:15;;;;;;;;;;;;;;;;;;5072182;28;20011;-74
2023/07/16 13:03:42;;;;;;;;;;;;;;;;;;5073958;28;19924;-73
2023/07/16 13:06:09;;;;;;;;;;;;;;;;;;5073906;28;20014;-73
2023/07/16 13:08:36;;;;;;;;;;;;;;;;;;5071813;28;19979;-74
2023/07/16 13:11:03;;;;;;;;;;;;;;;;;;5073129;28;20453;-73
2023/07/16 13:13:30;;;;;;;;;;;;;;;;;;5072434;28;19977;-74
2023/07/16 13:15:57;;;;;;;;;;;;;;;;;;5067136;28;19933;-74
2023/07/16 13:18:24;;;;;;;;;;;;;;;;;;5055835;28;20480;-74
2023/07/16 13:20:51;;;;;;;;;;;;;;;;;;5070951;28;19986;-74
2023/07/16 13:23:18;;;;;;;;;;;;;;;;;;5064022;28;19932;-74
2023/07/16 13:25:45;;;;;;;;;;;;;;;;;;5067926;28;19925;-75
2023/07/16 13:28:12;;;;;;;;;;;;;;;;;;5068944;28;20023;-74
2023/07/16 13:30:39;;;;;;;;;;;;;;;;;;5072791;28;19963;-74
2023/07/16 13:33:06;;;;;;;;;;;;;;;;;;5065899;28;20015;-73
2023/07/16 13:35:33;;;;;;;;;;;;;;;;;;5066299;28;20015;-73
2023/07/16 13:38:01;;;;;;;;;;;;;;;;;;5069049;28;19931;-72
2023/07/16 13:40:28;;;;;;;;;;;;;;;;;;5064383;28;20369;-72
2023/07/16 13:42:55;;;;;;;;;;;;;;;;;;5067499;28;19925;-72
2023/07/16 13:45:22;;;;;;;;;;;;;;;;;;5069354;28;20019;-72
2023/07/16 13:47:49;;;;;;;;;;;;;;;;;;5070152;28;19970;-72
2023/07/16 13:50:16;;;;;;;;;;;;;;;;;;5070640;28;19978;-72
2023/07/16 13:52:43;;;;;;;;;;;;;;;;;;5070561;28;19925;-72
2023/07/16 13:55:10;;;;;;;;;;;;;;;;;;5070843;28;20064;-71
2023/07/16 13:57:37;;;;;;;;;;;;;;;;;;5067172;28;20383;-73
2023/07/16 14:00:09;;;;;;;;;;;;;;;;;;5071864;28;19998;-73
2023/07/16 14:02:36;;;;;;;;;;;;;;;;;;5071115;28;19924;-73
2023/07/16 14:05:04;;;;;;;;;;;;;;;;;;5068865;28;19935;-72
2023/07/16 14:07:31;;;;;;;;;;;;;;;;;;5072893;28;19928;-73
2023/07/16 14:09:58;;;;;;;;;;;;;;;;;;5065719;28;19928;-72
2023/07/16 14:12:25;;;;;;;;;;;;;;;;;;5068415;28;19931;-72
2023/07/16 14:14:52;;;;;;;;;;;;;;;;;;5061990;28;19924;-72
2023/07/16 14:17:20;;;;;;;;;;;;;;;;;;5068663;28;19924;-73
2023/07/16 14:19:47;;;;;;;;;;;;;;;;;;5071619;28;19928;-73
2023/07/16 14:22:15;;;;;;;;;;;;;;;;;;5066808;28;19979;-74
2023/07/16 14:24:42;;;;;;;;;;;;;;;;;;5069818;28;19924;-73
2023/07/16 14:27:09;;;;;;;;;;;;;;;;;;5072189;28;19954;-74
2023/07/16 14:29:36;;;;;;;;;;;;;;;;;;5062572;28;19978;-73
2023/07/16 14:32:06;;;;;;;;;;;;;;;;;;5063994;28;19960;-74
2023/07/16 14:34:33;;;;;;;;;;;;;;;;;;5065660;28;19928;-73
2023/07/16 14:37:00;;;;;;;;;;;;;;;;;;5069226;28;19975;-73
2023/07/16 14:39:27;;;;;;;;;;;;;;;;;;5067724;28;20423;-73
2023/07/16 14:41:54;;;;;;;;;;;;;;;;;;5068133;28;20002;-73
2023/07/16 14:44:21;;;;;;;;;;;;;;;;;;5065639;28;19924;-73
2023/07/16 14:46:48;;;;;;;;;;;;;;;;;;5067160;28;19924;-74
2023/07/16 14:49:15;;;;;;;;;;;;;;;;;;5069033;28;19941;-74
2023/07/16 14:51:42;;;;;;;;;;;;;;;;;;5071477;28;19967;-72
2023/07/16 14:54:09;;;;;;;;;;;;;;;;;;5061103;28;20440;-73
2023/07/16 14:56:37;;;;;;;;;;;;;;;;;;5068909;28;19925;-73
2023/07/16 14:59:04;;;;;;;;;;;;;;;;;;5063370;28;19965;-73
2023/07/16 15:01:31;;;;;;;;;;;;;;;;;;5072130;28;19925;-73
2023/07/16 15:03:58;;;;;;;;;;;;;;;;;;5068062;28;20015;-74
2023/07/16 15:06:25;;;;;;;;;;;;;;;;;;5065205;28;20007;-73
2023/07/16 15:08:52;;;;;;;;;;;;;;;;;;5074988;28;20003;-73
2023/07/16 15:11:19;;;;;;;;;;;;;;;;;;5061000;28;20402;-75
2023/07/16 15:13:46;;;;;;;;;;;;;;;;;;5067798;28;20258;-74
2023/07/16 15:16:13;;;;;;;;;;;;;;;;;;5083617;28;19978;-74
2023/07/16 15:18:40;;;;;;;;;;;;;;;;;;5068136;28;19924;-74
2023/07/16 15:21:07;;;;;;;;;;;;;;;;;;5063680;28;20347;-72
2023/07/16 15:23:34;;;;;;;;;;;;;;;;;;5068091;28;20015;-73
2023/07/16 15:26:05;;;;;;;;;;;;;;;;;;5069437;28;20406;-73
2023/07/16 15:28:33;;;;;;;;;;;;;;;;;;5065276;28;19956;-73
2023/07/16 15:31:00;;;;;;;;;;;;;;;;;;5069498;28;19962;-73
2023/07/16 15:33:29;;;;;;;;;;;;;;;;;;5076674;28;20015;-74
2023/07/16 15:35:56;;;;;;;;;;;;;;;;;;5076615;28;19932;-74
2023/07/16 15:38:23;;;;;;;;;;;;;;;;;;5073552;28;19925;-75
2023/07/16 15:40:50;;;;;;;;;;;;;;;;;;5073252;28;19924;-74
2023/07/16 15:43:17;;;;;;;;;;;;;;;;;;5070666;28;19928;-74
2023/07/16 15:45:44;;;;;;;;;;;;;;;;;;5071522;28;19963;-74
2023/07/16 15:48:12;;;;;;;;;;;;;;;;;;5074970;28;19955;-73
2023/07/16 15:50:39;;;;;;;;;;;;;;;;;;5069884;28;19924;-73
2023/07/16 15:53:06;;;;;;;;;;;;;;;;;;5071990;28;19977;-73
2023/07/16 15:55:33;;;;;;;;;;;;;;;;;;5075850;28;19931;-74
2023/07/16 15:58:00;;;;;;;;;;;;;;;;;;5074029;28;19925;-74
2023/07/16 16:00:27;;;;;;;;;;;;;;;;;;5075220;28;22409;-73
2023/07/16 16:02:55;;;;;;;;;;;;;;;;;;5072436;28;19924;-74
2023/07/16 16:05:22;;;;;;;;;;;;;;;;;;5070619;28;19932;-74
2023/07/16 16:07:49;;;;;;;;;;;;;;;;;;5074623;28;19976;-74
2023/07/16 16:10:16;;;;;;;;;;;;;;;;;;5073831;28;19967;-74
2023/07/16 16:12:43;;;;;;;;;;;;;;;;;;5076298;28;19924;-74
2023/07/16 16:15:10;;;;;;;;;;;;;;;;;;5078207;28;20041;-74
2023/07/16 16:17:38;;;;;;;;;;;;;;;;;;5074764;28;19942;-74
2023/07/16 16:20:07;;;;;;;;;;;;;;;;;;5072026;28;20023;-74
2023/07/16 16:22:35;;;;;;;;;;;;;;;;;;5074272;28;20002;-74
2023/07/16 16:25:03;;;;;;;;;;;;;;;;;;5070345;28;20277;-74
2023/07/16 16:27:30;;;;;;;;;;;;;;;;;;5067365;28;19951;-74
2023/07/16 16:29:57;;;;;;;;;;;;;;;;;;5075953;28;19928;-73
2023/07/16 16:32:24;;;;;;;;;;;;;;;;;;5074786;28;19931;-74
2023/07/16 16:34:51;;;;;;;;;;;;;;;;;;5073629;28;20022;-75
2023/07/16 16:37:18;;;;;;;;;;;;;;;;;;5072607;28;20003;-72
2023/07/16 16:39:45;;;;;;;;;;;;;;;;;;5067685;28;19943;-72
2023/07/16 16:42:12;;;;;;;;;;;;;;;;;;5071765;28;19928;-72
2023/07/16 16:44:39;;;;;;;;;;;;;;;;;;5070538;28;19928;-72